sensor_id;sensor_type;location;lat;lon;timestamp;P1;durP1;ratioP1;P2;durP2;ratioP2
47882;SDS011;37739;50.350;7.578;2022-07-23T00:01:00;6.30;;;5.73;;
47882;SDS011;37739;50.350;7.578;2022-07-23T00:03:25;8.37;;;7.67;;
47882;SDS011;37739;50.350;7.578;2022-07-23T00:05:51;9.37;;;8.57;;
47882;SDS011;37739;50.350;7.578;2022-07-23T00:08:16;8.13;;;7.43;;
47882;SDS011;37739;50.350;7.578;2022-07-23T00:10:44;8.20;;;7.50;;
47882;SDS011;37739;50.350;7.578;2022-07-23T00:13:09;8.87;;;8.07;;
47882;SDS011;37739;50.350;7.578;2022-07-23T00:15:35;7.90;;;7.30;;
47882;SDS011;37739;50.350;7.578;2022-07-23T00:18:02;7.30;;;6.70;;
47882;SDS011;37739;50.350;7.578;2022-07-23T00:20:28;7.40;;;6.70;;
47882;SDS011;37739;50.350;7.578;2022-07-23T00:22:55;7.53;;;6.93;;
47882;SDS011;37739;50.350;7.578;2022-07-23T00:25:21;7.30;;;6.60;;
47882;SDS011;37739;50.350;7.578;2022-07-23T00:27:47;7.87;;;7.27;;
47882;SDS011;37739;50.350;7.578;2022-07-23T00:30:15;7.63;;;7.03;;
47882;SDS011;37739;50.350;7.578;2022-07-23T00:35:11;8.63;;;7.47;;
47882;SDS011;37739;50.350;7.578;2022-07-23T00:37:37;7.30;;;6.70;;
47882;SDS011;37739;50.350;7.578;2022-07-23T00:40:02;8.57;;;7.97;;
47882;SDS011;37739;50.350;7.578;2022-07-23T00:42:33;8.23;;;7.53;;
47882;SDS011;37739;50.350;7.578;2022-07-23T00:44:58;7.33;;;6.70;;
47882;SDS011;37739;50.350;7.578;2022-07-23T00:47:23;8.20;;;6.93;;
47882;SDS011;37739;50.350;7.578;2022-07-23T00:49:56;8.30;;;7.60;;
47882;SDS011;37739;50.350;7.578;2022-07-23T00:52:24;7.63;;;7.03;;
47882;SDS011;37739;50.350;7.578;2022-07-23T00:54:50;7.10;;;6.50;;
47882;SDS011;37739;50.350;7.578;2022-07-23T00:57:16;7.93;;;7.27;;
47882;SDS011;37739;50.350;7.578;2022-07-23T00:59:44;6.60;;;6.10;;
47882;SDS011;37739;50.350;7.578;2022-07-23T01:02:09;8.33;;;7.63;;
47882;SDS011;37739;50.350;7.578;2022-07-23T01:04:35;7.90;;;7.27;;
47882;SDS011;37739;50.350;7.578;2022-07-23T01:07:02;7.80;;;7.20;;
47882;SDS011;37739;50.350;7.578;2022-07-23T01:09:28;7.13;;;6.63;;
47882;SDS011;37739;50.350;7.578;2022-07-23T01:11:54;7.43;;;6.83;;
47882;SDS011;37739;50.350;7.578;2022-07-23T01:14:20;7.50;;;6.90;;
47882;SDS011;37739;50.350;7.578;2022-07-23T01:16:46;8.87;;;8.17;;
47882;SDS011;37739;50.350;7.578;2022-07-23T01:19:16;8.47;;;7.77;;
47882;SDS011;37739;50.350;7.578;2022-07-23T01:21:46;9.07;;;8.30;;
47882;SDS011;37739;50.350;7.578;2022-07-23T01:24:16;6.93;;;6.37;;
47882;SDS011;37739;50.350;7.578;2022-07-23T01:26:45;9.43;;;8.60;;
47882;SDS011;37739;50.350;7.578;2022-07-23T01:29:14;8.90;;;8.00;;
47882;SDS011;37739;50.350;7.578;2022-07-23T01:31:40;7.80;;;7.20;;
47882;SDS011;37739;50.350;7.578;2022-07-23T01:34:10;7.90;;;7.30;;
47882;SDS011;37739;50.350;7.578;2022-07-23T01:36:36;7.03;;;6.50;;
47882;SDS011;37739;50.350;7.578;2022-07-23T01:39:02;8.07;;;7.40;;
47882;SDS011;37739;50.350;7.578;2022-07-23T01:41:29;8.93;;;8.13;;
47882;SDS011;37739;50.350;7.578;2022-07-23T01:43:57;8.70;;;7.97;;
47882;SDS011;37739;50.350;7.578;2022-07-23T01:46:22;6.87;;;6.23;;
47882;SDS011;37739;50.350;7.578;2022-07-23T01:48:48;7.90;;;7.27;;
47882;SDS011;37739;50.350;7.578;2022-07-23T01:51:20;8.17;;;7.47;;
47882;SDS011;37739;50.350;7.578;2022-07-23T01:53:48;7.60;;;7.00;;
47882;SDS011;37739;50.350;7.578;2022-07-23T01:56:13;8.03;;;7.43;;
47882;SDS011;37739;50.350;7.578;2022-07-23T01:58:40;8.90;;;8.20;;
47882;SDS011;37739;50.350;7.578;2022-07-23T02:01:06;7.73;;;7.13;;
47882;SDS011;37739;50.350;7.578;2022-07-23T02:03:31;7.87;;;7.17;;
47882;SDS011;37739;50.350;7.578;2022-07-23T02:05:59;9.20;;;8.40;;
47882;SDS011;37739;50.350;7.578;2022-07-23T02:08:24;7.63;;;7.00;;
47882;SDS011;37739;50.350;7.578;2022-07-23T02:10:50;9.17;;;8.13;;
47882;SDS011;37739;50.350;7.578;2022-07-23T02:13:16;9.60;;;8.90;;
47882;SDS011;37739;50.350;7.578;2022-07-23T02:15:42;8.90;;;8.00;;
47882;SDS011;37739;50.350;7.578;2022-07-23T02:18:09;9.13;;;8.33;;
47882;SDS011;37739;50.350;7.578;2022-07-23T02:20:35;8.57;;;7.83;;
47882;SDS011;37739;50.350;7.578;2022-07-23T02:23:03;7.93;;;7.33;;
47882;SDS011;37739;50.350;7.578;2022-07-23T02:25:28;7.50;;;6.87;;
47882;SDS011;37739;50.350;7.578;2022-07-23T02:27:56;8.60;;;7.90;;
47882;SDS011;37739;50.350;7.578;2022-07-23T02:30:22;8.83;;;8.13;;
47882;SDS011;37739;50.350;7.578;2022-07-23T02:32:49;8.03;;;7.33;;
47882;SDS011;37739;50.350;7.578;2022-07-23T02:35:17;10.57;;;8.80;;
47882;SDS011;37739;50.350;7.578;2022-07-23T02:37:42;6.70;;;6.20;;
47882;SDS011;37739;50.350;7.578;2022-07-23T02:40:08;8.87;;;8.13;;
47882;SDS011;37739;50.350;7.578;2022-07-23T02:42:36;8.90;;;8.20;;
47882;SDS011;37739;50.350;7.578;2022-07-23T02:45:02;7.73;;;7.10;;
47882;SDS011;37739;50.350;7.578;2022-07-23T02:47:29;7.57;;;6.97;;
47882;SDS011;37739;50.350;7.578;2022-07-23T02:49:56;7.50;;;6.90;;
47882;SDS011;37739;50.350;7.578;2022-07-23T02:52:22;8.30;;;7.60;;
47882;SDS011;37739;50.350;7.578;2022-07-23T02:54:47;7.90;;;7.20;;
47882;SDS011;37739;50.350;7.578;2022-07-23T02:57:14;7.77;;;7.10;;
47882;SDS011;37739;50.350;7.578;2022-07-23T02:59:40;8.33;;;7.63;;
47882;SDS011;37739;50.350;7.578;2022-07-23T03:02:07;7.10;;;6.40;;
47882;SDS011;37739;50.350;7.578;2022-07-23T03:04:37;6.57;;;5.97;;
47882;SDS011;37739;50.350;7.578;2022-07-23T03:07:05;8.27;;;7.57;;
47882;SDS011;37739;50.350;7.578;2022-07-23T03:09:30;7.77;;;7.17;;
47882;SDS011;37739;50.350;7.578;2022-07-23T03:11:55;8.03;;;7.30;;
47882;SDS011;37739;50.350;7.578;2022-07-23T03:14:21;8.70;;;8.00;;
47882;SDS011;37739;50.350;7.578;2022-07-23T03:16:49;8.53;;;7.83;;
47882;SDS011;37739;50.350;7.578;2022-07-23T03:19:15;8.83;;;7.90;;
47882;SDS011;37739;50.350;7.578;2022-07-23T03:21:40;7.43;;;6.67;;
47882;SDS011;37739;50.350;7.578;2022-07-23T03:24:09;7.10;;;6.60;;
47882;SDS011;37739;50.350;7.578;2022-07-23T03:26:37;6.97;;;6.37;;
47882;SDS011;37739;50.350;7.578;2022-07-23T03:29:07;7.00;;;6.50;;
47882;SDS011;37739;50.350;7.578;2022-07-23T03:31:32;7.60;;;7.00;;
47882;SDS011;37739;50.350;7.578;2022-07-23T03:34:00;8.00;;;7.30;;
47882;SDS011;37739;50.350;7.578;2022-07-23T03:36:26;7.10;;;6.60;;
47882;SDS011;37739;50.350;7.578;2022-07-23T03:38:53;7.47;;;6.87;;
47882;SDS011;37739;50.350;7.578;2022-07-23T03:41:19;7.90;;;7.30;;
47882;SDS011;37739;50.350;7.578;2022-07-23T03:43:45;7.87;;;7.20;;
47882;SDS011;37739;50.350;7.578;2022-07-23T03:46:11;8.80;;;8.10;;
47882;SDS011;37739;50.350;7.578;2022-07-23T03:48:37;8.33;;;7.67;;
47882;SDS011;37739;50.350;7.578;2022-07-23T03:51:02;9.90;;;9.20;;
47882;SDS011;37739;50.350;7.578;2022-07-23T03:53:28;9.83;;;9.03;;
47882;SDS011;37739;50.350;7.578;2022-07-23T03:55:53;9.60;;;8.70;;
47882;SDS011;37739;50.350;7.578;2022-07-23T03:58:21;9.50;;;8.80;;
47882;SDS011;37739;50.350;7.578;2022-07-23T04:00:46;9.80;;;8.90;;
47882;SDS011;37739;50.350;7.578;2022-07-23T04:03:12;10.07;;;9.10;;
47882;SDS011;37739;50.350;7.578;2022-07-23T04:05:39;10.20;;;9.40;;
47882;SDS011;37739;50.350;7.578;2022-07-23T04:08:07;10.03;;;9.13;;
47882;SDS011;37739;50.350;7.578;2022-07-23T04:10:32;8.83;;;7.97;;
47882;SDS011;37739;50.350;7.578;2022-07-23T04:13:00;10.27;;;9.00;;
47882;SDS011;37739;50.350;7.578;2022-07-23T04:15:28;9.13;;;8.33;;
47882;SDS011;37739;50.350;7.578;2022-07-23T04:17:55;9.70;;;8.80;;
47882;SDS011;37739;50.350;7.578;2022-07-23T04:20:20;10.30;;;9.40;;
47882;SDS011;37739;50.350;7.578;2022-07-23T04:22:46;11.67;;;10.60;;
47882;SDS011;37739;50.350;7.578;2022-07-23T04:25:11;10.10;;;9.23;;
47882;SDS011;37739;50.350;7.578;2022-07-23T04:27:38;9.80;;;8.90;;
47882;SDS011;37739;50.350;7.578;2022-07-23T04:30:06;9.30;;;8.50;;
47882;SDS011;37739;50.350;7.578;2022-07-23T04:32:32;10.20;;;9.27;;
47882;SDS011;37739;50.350;7.578;2022-07-23T04:35:00;9.73;;;8.93;;
47882;SDS011;37739;50.350;7.578;2022-07-23T04:37:25;9.57;;;8.77;;
47882;SDS011;37739;50.350;7.578;2022-07-23T04:39:51;10.00;;;9.10;;
47882;SDS011;37739;50.350;7.578;2022-07-23T04:42:16;11.80;;;10.90;;
47882;SDS011;37739;50.350;7.578;2022-07-23T04:44:44;11.00;;;10.10;;
47882;SDS011;37739;50.350;7.578;2022-07-23T04:47:09;10.80;;;9.93;;
47882;SDS011;37739;50.350;7.578;2022-07-23T04:49:35;9.90;;;9.00;;
47882;SDS011;37739;50.350;7.578;2022-07-23T04:52:03;12.30;;;11.27;;
47882;SDS011;37739;50.350;7.578;2022-07-23T04:54:33;12.10;;;10.90;;
47882;SDS011;37739;50.350;7.578;2022-07-23T04:57:01;13.20;;;12.00;;
47882;SDS011;37739;50.350;7.578;2022-07-23T04:59:28;12.63;;;11.53;;
47882;SDS011;37739;50.350;7.578;2022-07-23T05:01:56;11.80;;;10.73;;
47882;SDS011;37739;50.350;7.578;2022-07-23T05:04:21;10.90;;;9.97;;
47882;SDS011;37739;50.350;7.578;2022-07-23T05:06:47;9.90;;;9.00;;
47882;SDS011;37739;50.350;7.578;2022-07-23T05:09:14;12.00;;;10.90;;
47882;SDS011;37739;50.350;7.578;2022-07-23T05:11:40;12.20;;;11.00;;
47882;SDS011;37739;50.350;7.578;2022-07-23T05:14:05;12.30;;;11.27;;
47882;SDS011;37739;50.350;7.578;2022-07-23T05:16:31;13.07;;;11.87;;
47882;SDS011;37739;50.350;7.578;2022-07-23T05:18:56;12.00;;;11.00;;
47882;SDS011;37739;50.350;7.578;2022-07-23T05:21:22;11.70;;;10.70;;
47882;SDS011;37739;50.350;7.578;2022-07-23T05:23:47;9.80;;;9.00;;
47882;SDS011;37739;50.350;7.578;2022-07-23T05:26:12;10.60;;;9.73;;
47882;SDS011;37739;50.350;7.578;2022-07-23T05:28:41;12.57;;;11.47;;
47882;SDS011;37739;50.350;7.578;2022-07-23T05:31:08;12.77;;;11.60;;
47882;SDS011;37739;50.350;7.578;2022-07-23T05:33:38;11.50;;;10.60;;
47882;SDS011;37739;50.350;7.578;2022-07-23T05:36:06;12.30;;;11.17;;
47882;SDS011;37739;50.350;7.578;2022-07-23T05:38:31;12.77;;;11.57;;
47882;SDS011;37739;50.350;7.578;2022-07-23T05:40:57;11.07;;;10.17;;
47882;SDS011;37739;50.350;7.578;2022-07-23T05:43:23;10.60;;;9.63;;
47882;SDS011;37739;50.350;7.578;2022-07-23T05:45:51;9.70;;;8.90;;
47882;SDS011;37739;50.350;7.578;2022-07-23T05:48:19;11.30;;;10.40;;
47882;SDS011;37739;50.350;7.578;2022-07-23T05:50:46;9.97;;;9.17;;
47882;SDS011;37739;50.350;7.578;2022-07-23T05:53:12;9.20;;;8.40;;
47882;SDS011;37739;50.350;7.578;2022-07-23T05:55:38;10.30;;;9.40;;
47882;SDS011;37739;50.350;7.578;2022-07-23T05:58:03;12.40;;;11.20;;
47882;SDS011;37739;50.350;7.578;2022-07-23T06:00:33;10.80;;;9.80;;
47882;SDS011;37739;50.350;7.578;2022-07-23T06:02:58;10.10;;;9.20;;
47882;SDS011;37739;50.350;7.578;2022-07-23T06:05:24;11.27;;;10.30;;
47882;SDS011;37739;50.350;7.578;2022-07-23T06:07:52;10.37;;;9.47;;
47882;SDS011;37739;50.350;7.578;2022-07-23T06:10:18;8.87;;;8.00;;
47882;SDS011;37739;50.350;7.578;2022-07-23T06:12:46;9.10;;;8.23;;
47882;SDS011;37739;50.350;7.578;2022-07-23T06:15:11;10.73;;;9.73;;
47882;SDS011;37739;50.350;7.578;2022-07-23T06:17:37;9.77;;;8.97;;
47882;SDS011;37739;50.350;7.578;2022-07-23T06:20:06;8.20;;;7.50;;
47882;SDS011;37739;50.350;7.578;2022-07-23T06:22:33;8.70;;;8.00;;
47882;SDS011;37739;50.350;7.578;2022-07-23T06:24:58;7.73;;;7.10;;
47882;SDS011;37739;50.350;7.578;2022-07-23T06:27:24;9.77;;;8.93;;
47882;SDS011;37739;50.350;7.578;2022-07-23T06:29:49;9.03;;;8.23;;
47882;SDS011;37739;50.350;7.578;2022-07-23T06:32:14;9.97;;;9.07;;
47882;SDS011;37739;50.350;7.578;2022-07-23T06:34:45;8.20;;;7.50;;
47882;SDS011;37739;50.350;7.578;2022-07-23T06:37:12;9.30;;;8.50;;
47882;SDS011;37739;50.350;7.578;2022-07-23T06:39:40;8.70;;;7.90;;
47882;SDS011;37739;50.350;7.578;2022-07-23T06:42:05;8.07;;;7.40;;
47882;SDS011;37739;50.350;7.578;2022-07-23T06:44:31;8.13;;;7.43;;
47882;SDS011;37739;50.350;7.578;2022-07-23T06:46:56;7.67;;;7.00;;
47882;SDS011;37739;50.350;7.578;2022-07-23T06:49:21;7.97;;;7.17;;
47882;SDS011;37739;50.350;7.578;2022-07-23T06:51:49;7.00;;;6.40;;
47882;SDS011;37739;50.350;7.578;2022-07-23T06:54:16;8.93;;;8.13;;
47882;SDS011;37739;50.350;7.578;2022-07-23T06:56:46;8.03;;;7.43;;
47882;SDS011;37739;50.350;7.578;2022-07-23T06:59:11;8.47;;;7.67;;
47882;SDS011;37739;50.350;7.578;2022-07-23T07:01:37;8.53;;;7.73;;
47882;SDS011;37739;50.350;7.578;2022-07-23T07:04:03;8.70;;;7.90;;
47882;SDS011;37739;50.350;7.578;2022-07-23T07:06:30;7.50;;;6.80;;
47882;SDS011;37739;50.350;7.578;2022-07-23T07:08:55;6.97;;;6.37;;
47882;SDS011;37739;50.350;7.578;2022-07-23T07:11:21;7.33;;;6.60;;
47882;SDS011;37739;50.350;7.578;2022-07-23T07:13:48;7.80;;;7.10;;
47882;SDS011;37739;50.350;7.578;2022-07-23T07:16:14;7.70;;;7.10;;
47882;SDS011;37739;50.350;7.578;2022-07-23T07:18:42;7.60;;;6.90;;
47882;SDS011;37739;50.350;7.578;2022-07-23T07:21:07;8.07;;;7.27;;
47882;SDS011;37739;50.350;7.578;2022-07-23T07:23:35;6.93;;;6.40;;
47882;SDS011;37739;50.350;7.578;2022-07-23T07:26:05;8.67;;;7.87;;
47882;SDS011;37739;50.350;7.578;2022-07-23T07:28:30;8.43;;;7.60;;
47882;SDS011;37739;50.350;7.578;2022-07-23T07:30:55;8.10;;;7.10;;
47882;SDS011;37739;50.350;7.578;2022-07-23T07:33:23;9.00;;;8.20;;
47882;SDS011;37739;50.350;7.578;2022-07-23T07:35:48;7.60;;;7.00;;
47882;SDS011;37739;50.350;7.578;2022-07-23T07:38:14;6.33;;;5.90;;
47882;SDS011;37739;50.350;7.578;2022-07-23T07:40:39;7.50;;;6.90;;
47882;SDS011;37739;50.350;7.578;2022-07-23T07:43:04;7.53;;;6.93;;
47882;SDS011;37739;50.350;7.578;2022-07-23T07:45:30;7.20;;;6.60;;
47882;SDS011;37739;50.350;7.578;2022-07-23T07:47:58;7.13;;;6.57;;
47882;SDS011;37739;50.350;7.578;2022-07-23T07:50:26;8.20;;;7.50;;
47882;SDS011;37739;50.350;7.578;2022-07-23T07:52:51;8.93;;;8.17;;
47882;SDS011;37739;50.350;7.578;2022-07-23T07:55:19;7.83;;;7.13;;
47882;SDS011;37739;50.350;7.578;2022-07-23T07:57:44;9.80;;;8.90;;
47882;SDS011;37739;50.350;7.578;2022-07-23T08:00:14;8.80;;;8.00;;
47882;SDS011;37739;50.350;7.578;2022-07-23T08:02:46;9.27;;;6.90;;
47882;SDS011;37739;50.350;7.578;2022-07-23T08:05:18;8.07;;;7.37;;
47882;SDS011;37739;50.350;7.578;2022-07-23T08:07:45;8.30;;;7.60;;
47882;SDS011;37739;50.350;7.578;2022-07-23T08:10:11;7.90;;;7.20;;
47882;SDS011;37739;50.350;7.578;2022-07-23T08:12:40;6.43;;;5.83;;
47882;SDS011;37739;50.350;7.578;2022-07-23T08:15:08;8.23;;;7.50;;
47882;SDS011;37739;50.350;7.578;2022-07-23T08:17:34;7.90;;;7.27;;
47882;SDS011;37739;50.350;7.578;2022-07-23T08:20:03;8.10;;;7.40;;
47882;SDS011;37739;50.350;7.578;2022-07-23T08:25:23;7.27;;;6.67;;
47882;SDS011;37739;50.350;7.578;2022-07-23T08:27:51;7.30;;;6.70;;
47882;SDS011;37739;50.350;7.578;2022-07-23T08:30:17;6.33;;;5.73;;
47882;SDS011;37739;50.350;7.578;2022-07-23T08:35:24;5.97;;;5.40;;
47882;SDS011;37739;50.350;7.578;2022-07-23T08:38:06;6.57;;;6.07;;
47882;SDS011;37739;50.350;7.578;2022-07-23T08:40:35;6.83;;;6.17;;
47882;SDS011;37739;50.350;7.578;2022-07-23T08:43:04;6.20;;;5.70;;
47882;SDS011;37739;50.350;7.578;2022-07-23T08:45:44;6.10;;;5.60;;
47882;SDS011;37739;50.350;7.578;2022-07-23T08:50:50;5.90;;;5.40;;
47882;SDS011;37739;50.350;7.578;2022-07-23T08:53:18;5.70;;;5.30;;
47882;SDS011;37739;50.350;7.578;2022-07-23T08:55:46;5.90;;;5.40;;
47882;SDS011;37739;50.350;7.578;2022-07-23T08:58:17;5.30;;;4.80;;
47882;SDS011;37739;50.350;7.578;2022-07-23T09:00:44;5.63;;;5.10;;
47882;SDS011;37739;50.350;7.578;2022-07-23T09:03:15;5.80;;;5.40;;
47882;SDS011;37739;50.350;7.578;2022-07-23T09:05:48;6.13;;;5.50;;
47882;SDS011;37739;50.350;7.578;2022-07-23T09:08:17;5.87;;;5.37;;
47882;SDS011;37739;50.350;7.578;2022-07-23T09:15:49;4.97;;;4.57;;
47882;SDS011;37739;50.350;7.578;2022-07-23T09:18:15;5.10;;;4.70;;
47882;SDS011;37739;50.350;7.578;2022-07-23T09:20:41;4.90;;;4.50;;
47882;SDS011;37739;50.350;7.578;2022-07-23T09:23:08;3.43;;;3.13;;
47882;SDS011;37739;50.350;7.578;2022-07-23T09:25:33;4.27;;;3.97;;
47882;SDS011;37739;50.350;7.578;2022-07-23T09:27:59;4.80;;;4.40;;
47882;SDS011;37739;50.350;7.578;2022-07-23T09:30:28;4.00;;;3.70;;
47882;SDS011;37739;50.350;7.578;2022-07-23T09:33:12;5.00;;;4.50;;
47882;SDS011;37739;50.350;7.578;2022-07-23T09:35:50;3.80;;;3.50;;
47882;SDS011;37739;50.350;7.578;2022-07-23T09:38:18;4.93;;;3.43;;
47882;SDS011;37739;50.350;7.578;2022-07-23T09:40:45;3.60;;;3.30;;
47882;SDS011;37739;50.350;7.578;2022-07-23T09:43:12;4.13;;;3.20;;
47882;SDS011;37739;50.350;7.578;2022-07-23T09:45:54;3.30;;;3.00;;
47882;SDS011;37739;50.350;7.578;2022-07-23T09:48:49;4.00;;;3.50;;
47882;SDS011;37739;50.350;7.578;2022-07-23T09:51:16;3.00;;;2.77;;
47882;SDS011;37739;50.350;7.578;2022-07-23T09:54:01;3.50;;;3.30;;
47882;SDS011;37739;50.350;7.578;2022-07-23T09:56:27;3.80;;;3.50;;
47882;SDS011;37739;50.350;7.578;2022-07-23T09:58:53;2.80;;;2.60;;
47882;SDS011;37739;50.350;7.578;2022-07-23T10:01:37;3.17;;;2.97;;
47882;SDS011;37739;50.350;7.578;2022-07-23T10:04:06;3.20;;;2.90;;
47882;SDS011;37739;50.350;7.578;2022-07-23T10:06:35;3.43;;;3.13;;
47882;SDS011;37739;50.350;7.578;2022-07-23T10:09:02;3.57;;;3.27;;
47882;SDS011;37739;50.350;7.578;2022-07-23T10:11:28;3.20;;;2.90;;
47882;SDS011;37739;50.350;7.578;2022-07-23T10:14:00;2.70;;;2.50;;
47882;SDS011;37739;50.350;7.578;2022-07-23T10:16:30;3.20;;;2.93;;
47882;SDS011;37739;50.350;7.578;2022-07-23T10:18:58;2.83;;;2.23;;
47882;SDS011;37739;50.350;7.578;2022-07-23T10:21:30;2.40;;;2.20;;
47882;SDS011;37739;50.350;7.578;2022-07-23T10:29:47;3.33;;;3.03;;
47882;SDS011;37739;50.350;7.578;2022-07-23T10:35:10;2.93;;;2.57;;
47882;SDS011;37739;50.350;7.578;2022-07-23T10:37:48;3.03;;;2.77;;
47882;SDS011;37739;50.350;7.578;2022-07-23T10:42:43;2.33;;;2.13;;
47882;SDS011;37739;50.350;7.578;2022-07-23T10:48:11;2.50;;;2.30;;
47882;SDS011;37739;50.350;7.578;2022-07-23T10:50:38;2.17;;;2.00;;
47882;SDS011;37739;50.350;7.578;2022-07-23T10:58:05;2.83;;;2.63;;
47882;SDS011;37739;50.350;7.578;2022-07-23T11:00:31;2.40;;;2.20;;
47882;SDS011;37739;50.350;7.578;2022-07-23T11:03:01;2.57;;;2.30;;
47882;SDS011;37739;50.350;7.578;2022-07-23T11:05:44;2.30;;;2.10;;
47882;SDS011;37739;50.350;7.578;2022-07-23T11:08:19;2.30;;;2.10;;
47882;SDS011;37739;50.350;7.578;2022-07-23T11:10:56;1.90;;;1.80;;
47882;SDS011;37739;50.350;7.578;2022-07-23T11:13:36;2.07;;;1.90;;
47882;SDS011;37739;50.350;7.578;2022-07-23T11:16:12;2.40;;;2.20;;
47882;SDS011;37739;50.350;7.578;2022-07-23T11:24:04;2.80;;;2.50;;
47882;SDS011;37739;50.350;7.578;2022-07-23T11:31:59;3.20;;;2.90;;
47882;SDS011;37739;50.350;7.578;2022-07-23T11:36:59;2.97;;;2.77;;
47882;SDS011;37739;50.350;7.578;2022-07-23T11:39:25;3.03;;;2.83;;
47882;SDS011;37739;50.350;7.578;2022-07-23T11:41:52;3.30;;;3.00;;
47882;SDS011;37739;50.350;7.578;2022-07-23T11:44:28;3.47;;;3.10;;
47882;SDS011;37739;50.350;7.578;2022-07-23T11:49:25;2.90;;;2.70;;
47882;SDS011;37739;50.350;7.578;2022-07-23T11:52:04;2.90;;;2.37;;
47882;SDS011;37739;50.350;7.578;2022-07-23T11:54:30;4.83;;;3.27;;
47882;SDS011;37739;50.350;7.578;2022-07-23T11:56:59;2.90;;;2.53;;
47882;SDS011;37739;50.350;7.578;2022-07-23T11:59:26;2.67;;;2.47;;
47882;SDS011;37739;50.350;7.578;2022-07-23T12:02:00;2.70;;;2.50;;
47882;SDS011;37739;50.350;7.578;2022-07-23T12:04:39;3.40;;;2.90;;
47882;SDS011;37739;50.350;7.578;2022-07-23T12:07:08;3.23;;;2.93;;
47882;SDS011;37739;50.350;7.578;2022-07-23T12:09:53;3.50;;;3.23;;
47882;SDS011;37739;50.350;7.578;2022-07-23T12:12:22;4.27;;;2.97;;
47882;SDS011;37739;50.350;7.578;2022-07-23T12:14:57;3.03;;;2.83;;
47882;SDS011;37739;50.350;7.578;2022-07-23T12:17:28;3.07;;;2.87;;
47882;SDS011;37739;50.350;7.578;2022-07-23T12:19:57;3.67;;;3.37;;
47882;SDS011;37739;50.350;7.578;2022-07-23T12:22:24;4.63;;;2.93;;
47882;SDS011;37739;50.350;7.578;2022-07-23T12:24:55;3.13;;;2.83;;
47882;SDS011;37739;50.350;7.578;2022-07-23T12:27:28;3.00;;;2.80;;
47882;SDS011;37739;50.350;7.578;2022-07-23T12:29:53;3.13;;;2.83;;
47882;SDS011;37739;50.350;7.578;2022-07-23T12:35:01;2.90;;;2.70;;
47882;SDS011;37739;50.350;7.578;2022-07-23T12:39:58;2.97;;;2.77;;
47882;SDS011;37739;50.350;7.578;2022-07-23T12:42:45;3.77;;;3.43;;
47882;SDS011;37739;50.350;7.578;2022-07-23T12:45:12;3.50;;;3.20;;
47882;SDS011;37739;50.350;7.578;2022-07-23T12:53:23;4.53;;;3.00;;
47882;SDS011;37739;50.350;7.578;2022-07-23T12:55:56;3.53;;;3.33;;
47882;SDS011;37739;50.350;7.578;2022-07-23T12:58:32;3.80;;;3.50;;
47882;SDS011;37739;50.350;7.578;2022-07-23T13:01:05;3.37;;;3.07;;
47882;SDS011;37739;50.350;7.578;2022-07-23T13:03:32;3.20;;;3.00;;
47882;SDS011;37739;50.350;7.578;2022-07-23T13:06:00;3.03;;;2.83;;
47882;SDS011;37739;50.350;7.578;2022-07-23T13:08:27;2.70;;;2.50;;
47882;SDS011;37739;50.350;7.578;2022-07-23T13:10:54;3.50;;;3.03;;
47882;SDS011;37739;50.350;7.578;2022-07-23T13:13:21;3.17;;;2.97;;
47882;SDS011;37739;50.350;7.578;2022-07-23T13:15:52;3.40;;;2.83;;
47882;SDS011;37739;50.350;7.578;2022-07-23T13:18:18;3.40;;;3.20;;
47882;SDS011;37739;50.350;7.578;2022-07-23T13:20:45;3.50;;;3.20;;
47882;SDS011;37739;50.350;7.578;2022-07-23T13:23:16;2.90;;;2.70;;
47882;SDS011;37739;50.350;7.578;2022-07-23T13:25:41;3.50;;;3.20;;
47882;SDS011;37739;50.350;7.578;2022-07-23T13:28:10;2.53;;;2.33;;
47882;SDS011;37739;50.350;7.578;2022-07-23T13:30:35;2.63;;;2.43;;
47882;SDS011;37739;50.350;7.578;2022-07-23T13:33:02;3.27;;;3.07;;
47882;SDS011;37739;50.350;7.578;2022-07-23T13:35:28;3.13;;;2.93;;
47882;SDS011;37739;50.350;7.578;2022-07-23T13:37:54;3.30;;;3.10;;
47882;SDS011;37739;50.350;7.578;2022-07-23T13:40:20;3.20;;;3.00;;
47882;SDS011;37739;50.350;7.578;2022-07-23T13:42:45;2.80;;;2.60;;
47882;SDS011;37739;50.350;7.578;2022-07-23T13:45:10;3.23;;;2.93;;
47882;SDS011;37739;50.350;7.578;2022-07-23T13:47:38;3.23;;;2.93;;
47882;SDS011;37739;50.350;7.578;2022-07-23T13:50:06;3.20;;;2.90;;
47882;SDS011;37739;50.350;7.578;2022-07-23T13:52:34;3.20;;;3.00;;
47882;SDS011;37739;50.350;7.578;2022-07-23T13:55:04;3.03;;;2.80;;
47882;SDS011;37739;50.350;7.578;2022-07-23T13:57:30;3.83;;;2.83;;
47882;SDS011;37739;50.350;7.578;2022-07-23T13:59:56;3.20;;;3.00;;
47882;SDS011;37739;50.350;7.578;2022-07-23T14:02:22;3.30;;;3.00;;
47882;SDS011;37739;50.350;7.578;2022-07-23T14:04:47;3.27;;;2.97;;
47882;SDS011;37739;50.350;7.578;2022-07-23T14:07:15;3.60;;;3.10;;
47882;SDS011;37739;50.350;7.578;2022-07-23T14:09:43;3.50;;;3.20;;
47882;SDS011;37739;50.350;7.578;2022-07-23T14:12:10;3.83;;;3.30;;
47882;SDS011;37739;50.350;7.578;2022-07-23T14:14:36;2.90;;;2.70;;
47882;SDS011;37739;50.350;7.578;2022-07-23T14:17:06;3.60;;;3.30;;
47882;SDS011;37739;50.350;7.578;2022-07-23T14:19:31;3.33;;;3.07;;
47882;SDS011;37739;50.350;7.578;2022-07-23T14:21:57;3.70;;;3.40;;
47882;SDS011;37739;50.350;7.578;2022-07-23T14:24:22;3.63;;;3.33;;
47882;SDS011;37739;50.350;7.578;2022-07-23T14:26:47;3.77;;;3.43;;
47882;SDS011;37739;50.350;7.578;2022-07-23T14:29:13;3.67;;;3.20;;
47882;SDS011;37739;50.350;7.578;2022-07-23T14:31:43;3.23;;;3.00;;
47882;SDS011;37739;50.350;7.578;2022-07-23T14:34:10;3.40;;;3.10;;
47882;SDS011;37739;50.350;7.578;2022-07-23T14:36:36;3.60;;;3.30;;
47882;SDS011;37739;50.350;7.578;2022-07-23T14:39:09;3.70;;;3.40;;
47882;SDS011;37739;50.350;7.578;2022-07-23T14:41:35;3.53;;;3.23;;
47882;SDS011;37739;50.350;7.578;2022-07-23T14:44:01;3.97;;;3.23;;
47882;SDS011;37739;50.350;7.578;2022-07-23T14:46:29;3.77;;;3.40;;
47882;SDS011;37739;50.350;7.578;2022-07-23T14:48:55;3.93;;;3.63;;
47882;SDS011;37739;50.350;7.578;2022-07-23T14:51:20;3.23;;;3.00;;
47882;SDS011;37739;50.350;7.578;2022-07-23T14:53:49;3.60;;;3.30;;
47882;SDS011;37739;50.350;7.578;2022-07-23T14:56:16;3.37;;;3.07;;
47882;SDS011;37739;50.350;7.578;2022-07-23T14:58:44;4.33;;;3.30;;
47882;SDS011;37739;50.350;7.578;2022-07-23T15:01:09;4.00;;;3.30;;
47882;SDS011;37739;50.350;7.578;2022-07-23T15:03:35;3.77;;;3.50;;
47882;SDS011;37739;50.350;7.578;2022-07-23T15:06:00;3.73;;;3.40;;
47882;SDS011;37739;50.350;7.578;2022-07-23T15:08:25;3.60;;;3.30;;
47882;SDS011;37739;50.350;7.578;2022-07-23T15:10:51;3.87;;;3.57;;
47882;SDS011;37739;50.350;7.578;2022-07-23T15:13:19;3.30;;;3.00;;
47882;SDS011;37739;50.350;7.578;2022-07-23T15:15:46;2.97;;;2.77;;
47882;SDS011;37739;50.350;7.578;2022-07-23T15:18:15;3.80;;;3.50;;
47882;SDS011;37739;50.350;7.578;2022-07-23T15:20:41;3.73;;;3.43;;
47882;SDS011;37739;50.350;7.578;2022-07-23T15:23:06;3.30;;;3.00;;
47882;SDS011;37739;50.350;7.578;2022-07-23T15:25:32;3.80;;;3.00;;
47882;SDS011;37739;50.350;7.578;2022-07-23T15:28:00;3.40;;;3.10;;
47882;SDS011;37739;50.350;7.578;2022-07-23T15:30:28;4.07;;;3.77;;
47882;SDS011;37739;50.350;7.578;2022-07-23T15:32:58;3.40;;;3.20;;
47882;SDS011;37739;50.350;7.578;2022-07-23T15:35:26;3.83;;;3.53;;
47882;SDS011;37739;50.350;7.578;2022-07-23T15:37:51;3.67;;;3.40;;
47882;SDS011;37739;50.350;7.578;2022-07-23T15:40:22;3.47;;;3.27;;
47882;SDS011;37739;50.350;7.578;2022-07-23T15:42:53;3.80;;;3.50;;
47882;SDS011;37739;50.350;7.578;2022-07-23T15:45:23;3.70;;;3.40;;
47882;SDS011;37739;50.350;7.578;2022-07-23T15:47:48;3.83;;;3.53;;
47882;SDS011;37739;50.350;7.578;2022-07-23T15:50:14;3.70;;;3.40;;